Terminal Aerodrome Forecast
Issued by NWS

Home | Current Version | Previous Version | Text Only | Print | Product List | Glossary On
Versions: 1 2 3 4 5 6 7 8 9 10 11 12 13 14 15 16 17 18 19
000
FTUS46 KHNX 222325
TAFMER
TAF
KMER 222325Z 2300/2324 01005KT 5SM BR OVC007
     FM230600 VRB03KT 2SM BR OVC005
      TEMPO 2310/2314 1/2SM FG VV002
     FM232100 15005KT 4SM BR OVC007=

USA.gov is the U.S. government's official web portal to all federal, state and local government web resources and services.